Time;durP1;ratioP1;P1;durP2;ratioP2;P2;SDS_P1;SDS_P2;PMS_P1;PMS_P2;Temp;Humidity;BMP_temperature;BMP_pressure;BME280_temperature;BME280_humidity;BME280_pressure;Samples;Min_cycle;Max_cycle;Signal;HPM_P1;HPM_P2
2022/10/11 00:01:00;;;;;;;5.53;1.65;;;;;;;7.51;64.23;149544.31;1779171;80;21009;-70
2022/10/11 00:03:27;;;;;;;10.20;2.05;;;;;;;7.50;64.26;149541.72;1763015;79;21416;-70
2022/10/11 00:05:54;;;;;;;3.05;1.50;;;;;;;7.48;64.28;149536.55;1767416;80;21020;-70
2022/10/11 00:08:20;;;;;;;9.00;1.42;;;;;;;7.45;64.35;149530.06;1765646;80;21050;-70
2022/10/11 00:11:02;;;;;;;6.85;1.72;;;;;;;7.45;64.39;149530.06;1765237;80;21236;-70
2022/10/11 00:13:29;;;;;;;5.15;2.27;;;;;;;7.43;64.43;149524.88;1774833;80;21113;-70
2022/10/11 00:15:56;;;;;;;3.15;1.40;;;;;;;7.44;64.46;149528.78;1768572;80;21055;-70
2022/10/11 00:18:23;;;;;;;4.70;1.52;;;;;;;7.47;64.42;149533.95;1765036;80;21082;-70
2022/10/11 00:20:50;;;;;;;3.47;1.27;;;;;;;7.45;64.38;149531.38;1778493;80;21105;-69
2022/10/11 00:23:17;;;;;;;6.15;1.60;;;;;;;7.45;64.40;149530.06;1777476;78;21249;-70
2022/10/11 00:25:43;;;;;;;4.05;1.45;;;;;;;7.40;64.54;149518.39;1768832;80;21081;-70
2022/10/11 00:28:10;;;;;;;7.42;1.55;;;;;;;7.38;64.62;149513.22;1786999;80;21055;-69
2022/10/11 00:30:41;;;;;;;5.25;1.60;;;;;;;7.37;64.75;149510.62;1782658;80;21769;-70
2022/10/11 00:33:08;;;;;;;5.87;1.55;;;;;;;7.36;64.92;149508.03;1757362;80;21766;-69
2022/10/11 00:35:35;;;;;;;4.30;1.70;;;;;;;7.33;65.00;149500.28;1774581;80;21452;-69
2022/10/11 00:38:02;;;;;;;11.12;1.85;;;;;;;7.31;65.19;149495.11;1754337;80;21085;-69
2022/10/11 00:40:28;;;;;;;7.55;1.80;;;;;;;7.28;65.29;149487.34;1768157;80;21045;-70
2022/10/11 00:42:55;;;;;;;4.80;1.50;;;;;;;7.23;65.41;149474.42;1778706;80;21004;-69
2022/10/11 00:45:37;;;;;;;5.92;1.98;;;;;;;7.17;65.67;149461.44;1772286;79;21601;-69
2022/10/11 00:48:16;;;;;;;3.50;1.53;;;;;;;7.09;66.07;149440.75;1766602;80;21298;-69
2022/10/11 00:50:43;;;;;;;6.60;1.30;;;;;;;7.01;66.32;149420.05;1754222;80;21063;-70
2022/10/11 00:53:10;;;;;;;4.95;1.70;;;;;;;6.94;66.62;149403.22;1755381;79;21067;-69
2022/10/11 00:55:41;;;;;;;5.10;1.80;;;;;;;6.90;66.77;149391.56;1766206;80;20975;-70
2022/10/11 00:58:09;;;;;;;6.35;1.50;;;;;;;6.86;66.88;149383.80;1756894;80;21509;-70
2022/10/11 01:00:37;;;;;;;6.53;1.50;;;;;;;6.83;67.24;149374.72;1767719;80;21225;-70
2022/10/11 01:03:04;;;;;;;5.17;1.80;;;;;;;6.78;67.40;149363.11;1767147;80;21069;-69
2022/10/11 01:05:31;;;;;;;6.70;1.90;;;;;;;6.72;67.67;149347.55;1755800;80;21018;-70
2022/10/11 01:07:59;;;;;;;3.75;1.55;;;;;;;6.69;67.78;149341.11;1772931;80;21038;-70
2022/10/11 01:10:26;;;;;;;4.60;1.60;;;;;;;6.69;67.94;149339.80;1766643;80;21027;-69
2022/10/11 01:13:18;;;;;;;5.65;1.70;;;;;;;6.70;68.00;149342.37;1775563;80;21827;-69
2022/10/11 01:16:14;;;;;;;4.80;1.65;;;;;;;6.70;68.23;149342.37;1762047;80;20986;-69
2022/10/11 01:18:48;;;;;;;;;;;;;;;6.68;68.41;149337.20;1778585;80;21018;-69
2022/10/11 01:21:53;;;;;;;4.15;1.75;;;;;;;6.65;68.44;149329.45;1771292;79;20392;-69
2022/10/11 01:25:01;;;;;;;4.90;1.95;;;;;;;6.63;68.63;149325.59;1755752;80;21057;-68
2022/10/11 01:27:53;;;;;;;3.58;1.42;;;;;;;6.61;68.92;149319.11;1757541;80;21299;-61
2022/10/11 01:30:32;;;;;;;8.73;1.87;;;;;;;6.58;69.16;149313.94;1770187;80;21089;-69
2022/10/11 01:33:29;;;;;;;6.50;1.60;;;;;;;6.56;69.45;149308.77;1769606;80;21452;-70
2022/10/11 01:36:36;;;;;;;6.00;1.65;;;;;;;6.55;69.79;149304.86;1766721;80;21539;-61
2022/10/11 01:39:27;;;;;;;6.12;1.77;;;;;;;6.52;70.16;149298.44;1762214;80;21539;-63
2022/10/11 01:41:55;;;;;;;6.90;1.77;;;;;;;6.51;70.42;149294.53;1769550;80;21256;-62
2022/10/11 01:44:24;;;;;;;4.87;1.52;;;;;;;6.52;70.59;149298.44;1759795;80;21049;-69
2022/10/11 01:46:52;;;;;;;4.08;1.67;;;;;;;6.54;70.74;149302.28;1756563;80;21463;-69
2022/10/11 01:49:19;;;;;;;7.50;1.77;;;;;;;6.56;70.56;149307.45;1761002;81;21142;-69
2022/10/11 01:51:52;;;;;;;6.90;1.95;;;;;;;6.55;70.45;149306.19;1740263;81;21046;-69
2022/10/11 01:54:45;;;;;;;16.17;1.92;;;;;;;6.54;70.52;149303.59;1743158;81;21427;-70
2022/10/11 01:57:33;;;;;;;4.87;1.85;;;;;;;6.51;70.52;149295.80;1731633;80;21026;-71
2022/10/11 02:00:14;;;;;;;5.80;1.72;;;;;;;6.45;70.78;149280.28;1733603;80;21107;-70
2022/10/11 02:03:23;;;;;;;3.45;1.67;;;;;;;6.42;71.07;149272.53;1730922;80;21024;-69
2022/10/11 02:06:12;;;;;;;8.25;2.25;;;;;;;6.40;71.33;149267.36;1761741;80;21079;-70
2022/10/11 02:08:58;;;;;;;3.77;1.70;;;;;;;6.40;71.56;149267.36;1744505;80;20968;-70
2022/10/11 02:11:30;;;;;;;8.33;1.95;;;;;;;6.39;71.86;149264.78;1742894;80;21081;-70
2022/10/11 02:14:23;;;;;;;10.08;2.25;;;;;;;6.39;71.83;149266.05;1732992;80;21404;-69
2022/10/11 02:17:06;;;;;;;8.15;2.33;;;;;;;6.41;71.78;149269.94;1747719;80;21488;-69
2022/10/11 02:19:37;;;;;;;5.15;1.98;;;;;;;6.39;71.67;149264.78;1726620;80;20937;-70
2022/10/11 02:22:09;;;;;;;4.95;1.60;;;;;;;6.42;71.61;149272.53;1736278;80;21217;-69
2022/10/11 02:24:38;;;;;;;4.85;1.92;;;;;;;6.41;71.40;149271.27;1739669;80;21036;-62
2022/10/11 02:27:05;;;;;;;8.28;1.90;;;;;;;6.42;71.31;149273.84;1752710;80;21004;-63
2022/10/11 02:29:35;;;;;;;3.30;1.90;;;;;;;6.42;71.27;149272.53;1718807;82;21098;-64
2022/10/11 02:32:02;;;;;;;11.68;2.15;;;;;;;6.45;71.24;149280.28;1692605;82;21039;-62
2022/10/11 02:34:32;;;;;;;7.67;2.10;;;;;;;6.47;71.27;149284.19;1762886;80;21884;-62
2022/10/11 02:37:24;;;;;;;14.70;2.47;;;;;;;6.49;71.15;149290.63;1771863;80;21032;-62
2022/10/11 02:40:28;;;;;;;6.80;2.37;;;;;;;6.51;71.01;149295.80;1694773;83;21498;-61
2022/10/11 02:42:59;;;;;;;10.00;2.37;;;;;;;6.49;70.87;149289.36;1674514;83;21551;-61
2022/10/11 02:45:34;;;;;;;7.35;2.30;;;;;;;6.40;70.85;149267.36;1687487;82;21061;-62
2022/10/11 02:48:00;;;;;;;;;;;;;;;6.36;71.01;149257.02;1690368;82;21220;-69
2022/10/11 02:50:27;;;;;;;5.55;2.20;;;;;;;6.33;71.25;149249.27;1704672;82;20172;-70
2022/10/11 02:52:54;;;;;;;12.53;2.58;;;;;;;6.29;71.47;149241.47;1715346;82;21050;-69
2022/10/11 02:55:21;;;;;;;9.03;2.87;;;;;;;6.27;71.75;149236.30;1687990;82;21101;-69
2022/10/11 02:57:48;;;;;;;7.05;2.90;;;;;;;6.30;72.17;149244.09;1680138;83;21051;-69
2022/10/11 03:00:15;;;;;;;7.33;2.80;;;;;;;6.36;72.32;149258.28;1699596;83;21284;-69
2022/10/11 03:02:42;;;;;;;6.67;2.60;;;;;;;6.40;72.24;149267.36;1707265;83;21053;-69
2022/10/11 03:05:09;;;;;;;7.33;2.95;;;;;;;6.46;72.32;149282.88;1698990;83;21296;-69
2022/10/11 03:07:35;;;;;;;12.80;2.60;;;;;;;6.51;72.36;149295.80;1709582;83;21603;-69
2022/10/11 03:10:04;;;;;;;9.25;3.02;;;;;;;6.55;72.14;149306.19;1722605;83;21023;-69
2022/10/11 03:12:32;;;;;;;5.78;2.37;;;;;;;6.56;72.05;149308.77;1715873;83;20964;-69
2022/10/11 03:14:59;;;;;;;6.72;2.37;;;;;;;6.56;72.00;149307.45;1722411;83;21120;-69
2022/10/11 03:17:26;;;;;;;10.88;2.40;;;;;;;6.56;72.20;149308.77;1720276;83;21072;-69
2022/10/11 03:19:54;;;;;;;5.92;2.45;;;;;;;6.57;72.22;149310.03;1702768;83;21090;-70
2022/10/11 03:22:22;;;;;;;7.67;2.30;;;;;;;6.56;72.41;149308.77;1717333;83;21059;-70
2022/10/11 03:24:49;;;;;;;9.43;2.37;;;;;;;6.55;72.92;149306.19;1706169;83;21243;-68
2022/10/11 03:27:15;;;;;;;5.17;2.22;;;;;;;6.55;73.53;149306.19;1706612;83;21270;-69
2022/10/11 03:29:43;;;;;;;10.93;2.70;;;;;;;6.55;73.62;149304.86;1718431;83;21035;-69
2022/10/11 03:32:09;;;;;;;11.68;3.02;;;;;;;6.56;74.11;149308.77;1715874;83;21111;-69
2022/10/11 03:34:36;;;;;;;13.98;2.60;;;;;;;6.56;74.56;149308.77;1695401;83;20977;-70
2022/10/11 03:37:03;;;;;;;9.63;2.55;;;;;;;6.56;74.82;149308.77;1697160;83;21761;-69
2022/10/11 03:39:30;;;;;;;9.13;2.35;;;;;;;6.55;74.76;149306.19;1711429;83;21538;-62
2022/10/11 03:41:58;;;;;;;10.93;2.52;;;;;;;6.53;74.80;149301.02;1718071;83;21127;-63
2022/10/11 03:44:25;;;;;;;14.65;3.90;;;;;;;6.51;74.85;149295.80;1694495;83;21125;-62
2022/10/11 03:46:52;;;;;;;11.73;3.00;;;;;;;6.49;74.77;149290.63;1710815;83;21063;-62
2022/10/11 03:49:19;;;;;;;14.73;3.45;;;;;;;6.48;74.74;149286.77;1719418;83;21442;-62
2022/10/11 03:51:46;;;;;;;16.75;3.10;;;;;;;6.42;74.89;149272.53;1722801;83;21063;-62
2022/10/11 03:54:12;;;;;;;37.35;4.08;;;;;;;6.39;75.45;149264.78;1708419;83;21032;-62
2022/10/11 03:56:39;;;;;;;11.78;2.72;;;;;;;6.38;76.01;149262.19;1708928;83;21457;-63
2022/10/11 03:59:07;;;;;;;11.45;3.33;;;;;;;6.38;76.52;149262.19;1706982;83;21064;-69
2022/10/11 04:01:37;;;;;;;9.30;2.85;;;;;;;6.38;76.91;149262.19;1709606;82;21250;-69
2022/10/11 04:04:04;;;;;;;11.97;3.17;;;;;;;6.36;77.18;149257.02;1712931;83;21055;-69
2022/10/11 04:06:31;;;;;;;4.95;2.25;;;;;;;6.36;77.53;149258.28;1717568;82;21534;-70
2022/10/11 04:08:58;;;;;;;12.82;2.60;;;;;;;6.36;78.15;149258.28;1718324;82;21086;-69
2022/10/11 04:11:25;;;;;;;13.90;2.72;;;;;;;6.36;78.24;149257.02;1713568;83;20956;-69
2022/10/11 04:13:52;;;;;;;9.80;3.00;;;;;;;6.36;78.61;149257.02;1704469;83;21924;-69
2022/10/11 04:16:19;;;;;;;10.28;3.20;;;;;;;6.37;79.22;149259.59;1713780;82;20986;-69
2022/10/11 04:18:46;;;;;;;7.75;2.55;;;;;;;6.45;79.99;149280.28;1711836;82;21044;-69
2022/10/11 04:21:13;;;;;;;5.08;2.60;;;;;;;6.51;79.57;149295.80;1715430;83;21008;-69
2022/10/11 04:23:40;;;;;;;8.43;2.45;;;;;;;6.55;79.09;149304.86;1710118;83;21578;-69
2022/10/11 04:26:07;;;;;;;7.80;2.20;;;;;;;6.59;78.73;149316.53;1709897;82;21041;-70
2022/10/11 04:28:34;;;;;;;5.37;2.27;;;;;;;6.67;78.48;149334.62;1709725;83;21108;-70
2022/10/11 04:31:03;;;;;;;8.15;2.55;;;;;;;6.85;78.46;149381.22;1709667;83;21547;-70
2022/10/11 04:33:31;;;;;;;7.37;2.40;;;;;;;7.06;78.43;149431.66;1709325;83;21129;-70
2022/10/11 04:35:58;;;;;;;5.45;2.60;;;;;;;7.36;78.58;149508.03;1718271;82;21749;-70
2022/10/11 04:38:24;;;;;;;10.82;2.58;;;;;;;7.66;77.81;149581.84;1712846;83;21230;-70
2022/10/11 04:40:51;;;;;;;8.83;2.80;;;;;;;7.89;76.86;149640.14;1756685;80;21048;-69
2022/10/11 04:43:18;;;;;;;13.93;2.92;;;;;;;7.99;76.26;149666.03;1725856;82;21042;-70
2022/10/11 04:45:45;;;;;;;9.58;3.10;;;;;;;8.01;76.31;149671.20;1725783;80;21493;-71
2022/10/11 04:48:12;;;;;;;10.70;3.35;;;;;;;8.03;76.22;149676.38;1749990;80;21048;-69
2022/10/11 04:50:40;;;;;;;7.85;2.90;;;;;;;8.07;75.50;149684.14;1740010;80;21288;-70
2022/10/11 04:53:07;;;;;;;13.05;3.72;;;;;;;8.05;74.75;149680.28;1728644;80;21067;-69
2022/10/11 04:55:36;;;;;;;10.32;2.65;;;;;;;7.99;74.77;149664.75;1742200;80;21058;-69
2022/10/11 04:58:03;;;;;;;13.53;3.00;;;;;;;7.97;75.13;149660.84;1739179;80;21487;-69
2022/10/11 05:00:30;;;;;;;11.35;2.92;;;;;;;7.99;75.55;149664.75;1759909;80;21024;-70
2022/10/11 05:02:57;;;;;;;12.50;2.83;;;;;;;8.04;76.56;149677.69;1747151;80;21235;-70
2022/10/11 05:05:23;;;;;;;10.98;2.83;;;;;;;8.16;76.66;149708.75;1741901;80;21081;-70
2022/10/11 05:07:51;;;;;;;8.03;2.90;;;;;;;8.27;75.82;149735.97;1745592;80;21106;-70
2022/10/11 05:10:18;;;;;;;7.40;2.70;;;;;;;8.36;74.07;149757.98;1739893;80;21381;-70
2022/10/11 05:12:46;;;;;;;6.70;2.42;;;;;;;8.42;72.73;149772.25;1759325;80;21024;-70
2022/10/11 05:15:13;;;;;;;8.65;3.17;;;;;;;8.52;71.92;149798.23;1740659;80;21475;-70
2022/10/11 05:17:40;;;;;;;8.30;2.33;;;;;;;8.62;71.28;149822.86;1739801;80;21038;-70
2022/10/11 05:20:09;;;;;;;11.12;2.60;;;;;;;8.75;70.76;149855.25;1748888;80;21523;-69
2022/10/11 05:22:35;;;;;;;6.40;2.90;;;;;;;8.83;70.05;149875.97;1751394;80;21516;-69
2022/10/11 05:25:03;;;;;;;10.25;2.95;;;;;;;8.92;69.87;149896.69;1755571;80;21139;-70
2022/10/11 05:27:30;;;;;;;6.90;2.83;;;;;;;8.99;69.69;149914.87;1743830;80;21250;-69
2022/10/11 05:29:57;;;;;;;10.48;3.60;;;;;;;9.08;69.38;149938.19;1736629;80;21616;-69
2022/10/11 05:32:24;;;;;;;8.58;3.45;;;;;;;9.10;68.90;149943.36;1677590;83;21121;-70
2022/10/11 05:34:51;;;;;;;8.45;3.27;;;;;;;9.08;68.46;149938.19;1735227;80;21039;-70
2022/10/11 05:37:19;;;;;;;11.53;3.90;;;;;;;9.04;68.37;149927.81;1732825;80;21054;-69
2022/10/11 05:39:46;;;;;;;10.38;3.50;;;;;;;9.03;68.68;149926.50;1737377;80;21707;-70
2022/10/11 05:42:14;;;;;;;23.55;4.00;;;;;;;9.06;68.78;149933.00;1744077;80;21045;-70
2022/10/11 05:44:41;;;;;;;12.95;4.15;;;;;;;9.08;69.01;149938.19;1747667;80;21111;-70
2022/10/11 05:47:08;;;;;;;8.88;3.40;;;;;;;9.20;69.16;149966.72;1739994;80;21589;-70
2022/10/11 05:49:35;;;;;;;9.75;3.55;;;;;;;9.39;69.10;150014.67;1741902;80;21067;-70
2022/10/11 05:52:02;;;;;;;16.07;3.75;;;;;;;9.58;68.44;150063.95;1740877;80;21251;-70
2022/10/11 05:54:30;;;;;;;10.98;3.40;;;;;;;9.63;68.26;150075.64;1748620;80;21054;-69
2022/10/11 05:56:57;;;;;;;7.40;3.27;;;;;;;9.70;68.31;150092.45;1746711;80;22447;-69
2022/10/11 05:59:24;;;;;;;8.43;3.72;;;;;;;9.79;68.36;150114.50;1732943;80;21014;-70
2022/10/11 06:01:51;;;;;;;11.53;4.40;;;;;;;9.87;68.00;150135.28;1750104;80;21071;-70
2022/10/11 06:04:20;;;;;;;11.45;3.85;;;;;;;9.93;67.77;150149.52;1742985;80;21440;-69
2022/10/11 06:06:48;;;;;;;14.90;4.40;;;;;;;9.96;67.52;150158.61;1752131;80;21088;-71
2022/10/11 06:09:15;;;;;;;11.93;4.30;;;;;;;10.01;67.64;150171.58;1766826;80;21046;-70
2022/10/11 06:11:42;;;;;;;16.05;4.80;;;;;;;10.09;67.80;150189.77;1744869;80;21027;-70
2022/10/11 06:14:11;;;;;;;12.43;5.75;;;;;;;10.18;67.92;150213.09;1749648;80;21178;-70
2022/10/11 06:16:38;;;;;;;21.60;5.05;;;;;;;10.29;67.69;150241.66;1762963;80;21252;-70
2022/10/11 06:19:06;;;;;;;15.72;5.35;;;;;;;10.38;67.62;150263.69;1752076;80;21090;-69
2022/10/11 06:21:34;;;;;;;9.80;4.70;;;;;;;10.51;67.52;150296.20;1743418;80;21020;-70
2022/10/11 06:24:02;;;;;;;10.65;4.47;;;;;;;10.60;67.42;150319.55;1689393;82;21557;-70
2022/10/11 06:26:32;;;;;;;10.75;4.17;;;;;;;10.68;67.13;150337.70;1738873;80;21019;-70
2022/10/11 06:29:00;;;;;;;15.90;4.78;;;;;;;10.71;66.99;150345.48;1742506;80;47804;-71
2022/10/11 06:31:28;;;;;;;15.13;4.83;;;;;;;10.77;66.74;150361.09;1746799;80;21580;-70
2022/10/11 06:33:55;;;;;;;19.37;6.12;;;;;;;10.83;66.91;150376.66;1746216;80;21124;-70
2022/10/11 06:36:22;;;;;;;24.92;7.17;;;;;;;10.95;66.43;150405.22;1739401;80;21040;-70
2022/10/11 06:38:54;;;;;;;18.70;6.20;;;;;;;11.10;65.34;150444.14;1695931;82;21136;-69
2022/10/11 06:41:25;;;;;;;16.15;6.92;;;;;;;11.23;64.70;150476.59;1739985;80;21321;-63
2022/10/11 06:43:52;;;;;;;21.23;6.75;;;;;;;11.37;64.27;150511.64;1749386;80;21497;-63
2022/10/11 06:46:20;;;;;;;17.52;6.50;;;;;;;11.51;64.05;150546.73;1747596;80;21019;-63
2022/10/11 06:48:48;;;;;;;17.92;6.17;;;;;;;11.63;63.69;150576.61;1748848;80;21057;-62
2022/10/11 06:51:18;;;;;;;13.03;5.55;;;;;;;11.73;63.38;150602.56;1743313;80;21087;-63
2022/10/11 06:53:50;;;;;;;13.35;5.00;;;;;;;11.85;63.22;150631.16;1753884;80;21120;-64
2022/10/11 06:56:18;;;;;;;9.73;3.98;;;;;;;11.92;63.21;150648.00;1739532;80;21011;-69
2022/10/11 06:58:45;;;;;;;14.98;3.90;;;;;;;11.98;63.12;150664.89;1749789;80;21101;-71
2022/10/11 07:01:17;;;;;;;11.12;4.12;;;;;;;12.09;63.16;150690.95;1744208;80;21045;-70
2022/10/11 07:03:44;;;;;;;13.20;4.15;;;;;;;12.23;62.78;150726.03;1743666;80;21068;-63
2022/10/11 07:06:14;;;;;;;7.90;3.70;;;;;;;12.32;62.53;150750.72;1703547;82;22007;-63
2022/10/11 07:08:41;;;;;;;13.40;4.00;;;;;;;12.45;62.23;150781.88;1735536;80;21143;-62
2022/10/11 07:11:16;;;;;;;7.72;3.37;;;;;;;12.53;61.95;150802.69;1749845;80;21845;-63
2022/10/11 07:13:50;;;;;;;9.23;3.47;;;;;;;12.59;62.00;150818.28;1748709;80;21063;-62
2022/10/11 07:16:17;;;;;;;9.43;3.08;;;;;;;12.73;61.08;150852.08;1693352;82;21088;-62
2022/10/11 07:18:46;;;;;;;6.47;2.65;;;;;;;12.83;60.30;150876.78;1746663;80;21514;-62
2022/10/11 07:21:14;;;;;;;12.03;2.70;;;;;;;12.85;59.81;150883.25;1753091;80;21043;-69
2022/10/11 07:23:41;;;;;;;5.10;2.20;;;;;;;12.86;59.69;150885.84;1742870;80;21065;-69
2022/10/11 07:26:09;;;;;;;6.03;2.27;;;;;;;12.90;58.71;150894.97;1742963;80;21112;-69
2022/10/11 07:28:36;;;;;;;7.35;2.30;;;;;;;12.95;58.16;150906.67;1693810;82;21052;-69
2022/10/11 07:31:10;;;;;;;6.28;2.67;;;;;;;12.98;57.82;150915.75;1756188;80;21253;-69
2022/10/11 07:33:37;;;;;;;6.85;2.42;;;;;;;13.04;57.04;150930.05;1756804;80;21310;-69
2022/10/11 07:36:05;;;;;;;8.75;2.30;;;;;;;13.16;56.59;150961.28;1758567;80;21083;-69
2022/10/11 07:38:32;;;;;;;6.55;2.35;;;;;;;13.27;55.35;150988.58;1750765;80;21098;-69
2022/10/11 07:41:04;;;;;;;8.75;2.90;;;;;;;13.31;54.49;150998.97;1742987;80;21511;-69
2022/10/11 07:43:31;;;;;;;8.23;2.42;;;;;;;13.40;54.63;151019.75;1739552;80;21609;-69
2022/10/11 07:46:02;;;;;;;6.53;2.35;;;;;;;13.57;53.61;151062.70;1758223;80;21023;-69
2022/10/11 07:48:27;;;;;;;3.75;1.80;;;;;;;13.64;52.75;151080.94;1747334;80;21082;-70
2022/10/11 07:51:14;;;;;;;8.93;2.17;;;;;;;13.67;52.29;151088.75;1751083;79;21753;-70
2022/10/11 07:53:50;;;;;;;9.38;2.25;;;;;;;13.70;52.14;151096.53;1754767;80;21075;-69
2022/10/11 07:56:22;;;;;;;4.58;1.80;;;;;;;13.77;51.29;151112.13;1743072;80;21756;-69
2022/10/11 07:58:56;;;;;;;5.10;1.62;;;;;;;13.86;50.25;151135.58;1663781;82;21045;-69
2022/10/11 08:01:23;;;;;;;8.20;1.77;;;;;;;13.97;49.88;151164.16;1677209;83;21543;-69
2022/10/11 08:03:49;;;;;;;6.37;1.60;;;;;;;14.07;49.90;151187.61;1681757;83;21116;-69
2022/10/11 08:06:19;;;;;;;4.37;1.70;;;;;;;14.12;49.33;151200.59;1682246;83;21051;-70
2022/10/11 08:08:47;;;;;;;5.62;1.87;;;;;;;14.16;49.20;151211.00;1722085;80;21198;-69
2022/10/11 08:11:21;;;;;;;5.00;1.70;;;;;;;14.22;49.14;151226.59;1740407;80;21530;-69
2022/10/11 08:13:50;;;;;;;5.40;2.10;;;;;;;14.28;48.80;151242.25;1714619;80;21079;-69
2022/10/11 08:16:17;;;;;;;3.10;1.60;;;;;;;14.35;48.63;151257.84;1732185;80;21624;-70
2022/10/11 08:18:44;;;;;;;4.58;1.62;;;;;;;14.43;48.41;151279.97;1723163;80;21053;-69
2022/10/11 08:21:13;;;;;;;1.80;1.15;;;;;;;14.53;48.14;151304.70;1723415;80;21706;-70
2022/10/11 08:23:40;;;;;;;3.20;1.40;;;;;;;14.60;47.65;151322.91;1733426;80;21017;-70
2022/10/11 08:26:08;;;;;;;5.12;1.27;;;;;;;14.68;47.48;151342.44;1730235;80;21538;-70
2022/10/11 08:28:35;;;;;;;2.80;1.12;;;;;;;14.75;46.92;151359.41;1723041;80;21015;-69
2022/10/11 08:31:02;;;;;;;3.62;1.50;;;;;;;14.74;46.24;151356.81;1755921;80;21056;-70
2022/10/11 08:33:29;;;;;;;1.80;1.15;;;;;;;14.74;46.31;151358.09;1727844;80;21133;-69
2022/10/11 08:35:57;;;;;;;4.72;1.10;;;;;;;14.79;45.75;151368.50;1734029;80;21462;-69
2022/10/11 08:38:25;;;;;;;5.35;1.20;;;;;;;14.81;45.80;151375.02;1701066;80;21015;-70
2022/10/11 08:40:57;;;;;;;4.58;1.17;;;;;;;14.88;45.61;151393.22;1730804;80;21421;-70
2022/10/11 08:43:45;;;;;;;4.35;1.55;;;;;;;15.01;45.29;151424.48;1741729;80;21032;-70
2022/10/11 08:46:12;;;;;;;2.83;1.32;;;;;;;15.09;45.82;151445.30;1735110;80;21734;-70
2022/10/11 08:48:45;;;;;;;8.28;1.37;;;;;;;15.08;45.12;151442.69;1725040;80;21378;-69
2022/10/11 08:51:33;;;;;;;4.35;1.37;;;;;;;15.09;45.17;151444.03;1730758;80;21457;-69
2022/10/11 08:54:15;;;;;;;4.22;1.60;;;;;;;15.11;45.26;151449.22;1729488;80;21580;-69
2022/10/11 08:56:43;;;;;;;4.20;1.32;;;;;;;15.03;44.99;151429.69;1715854;80;21103;-70
2022/10/11 08:59:16;;;;;;;3.55;1.37;;;;;;;15.01;45.05;151425.75;1691279;82;21802;-69
2022/10/11 09:01:46;;;;;;;2.52;1.30;;;;;;;15.01;45.27;151424.48;1755502;80;21540;-69
2022/10/11 09:04:15;;;;;;;2.05;1.17;;;;;;;15.03;45.42;151431.02;1702938;82;21092;-70
2022/10/11 09:06:50;;;;;;;3.50;1.55;;;;;;;15.06;45.14;151436.22;1759779;79;21034;-70
2022/10/11 09:09:48;;;;;;;2.80;1.40;;;;;;;15.05;45.37;151434.89;1764275;79;21108;-69
2022/10/11 09:12:35;;;;;;;5.97;1.12;;;;;;;15.08;44.97;151441.42;1747330;79;21244;-68
2022/10/11 09:15:24;;;;;;;2.45;1.00;;;;;;;15.00;45.22;151421.88;1749331;79;21482;-70
2022/10/11 09:18:12;;;;;;;3.27;1.10;;;;;;;15.06;45.43;151436.22;1757156;79;21058;-69
2022/10/11 09:21:19;;;;;;;2.42;1.27;;;;;;;15.07;44.47;151440.09;1752644;79;21054;-70
2022/10/11 09:24:26;;;;;;;2.27;1.00;;;;;;;15.02;44.35;151427.09;1771039;79;21511;-69
2022/10/11 09:27:22;;;;;;;2.20;1.20;;;;;;;15.12;44.58;151451.83;1756341;79;21135;-70
2022/10/11 09:30:11;;;;;;;3.17;1.00;;;;;;;15.26;44.54;151486.97;1766280;79;21082;-70
2022/10/11 09:32:41;;;;;;;3.60;0.98;;;;;;;15.37;44.29;151515.64;1762977;79;21058;-69
2022/10/11 09:35:13;;;;;;;2.72;1.05;;;;;;;15.44;43.67;151533.84;1774973;79;21071;-69
2022/10/11 09:38:07;;;;;;;1.27;0.80;;;;;;;15.42;43.35;151528.66;1763102;79;21067;-70
2022/10/11 09:41:16;;;;;;;2.17;0.90;;;;;;;15.40;42.97;151523.44;1740470;79;21950;-64
2022/10/11 09:43:50;;;;;;;4.53;1.02;;;;;;;15.42;43.00;151528.66;1759302;79;21035;-63
2022/10/11 09:46:29;;;;;;;2.12;1.00;;;;;;;15.47;43.01;151541.66;1755180;79;21215;-62
2022/10/11 09:48:56;;;;;;;3.30;1.40;;;;;;;15.51;42.75;151549.47;1768047;79;21114;-62
2022/10/11 09:51:25;;;;;;;2.60;1.00;;;;;;;15.51;42.04;151549.47;1709946;82;21051;-64
2022/10/11 09:53:56;;;;;;;3.77;1.00;;;;;;;15.47;42.22;151540.33;1744557;80;21327;-62
2022/10/11 09:56:25;;;;;;;5.30;0.85;;;;;;;15.49;42.58;151544.25;1758594;80;21067;-63
2022/10/11 09:59:34;;;;;;;4.87;1.00;;;;;;;15.50;42.33;151546.86;1689842;82;21081;-64
2022/10/11 10:02:12;;;;;;;1.47;0.78;;;;;;;15.48;42.17;151542.98;1745802;80;21594;-63
2022/10/11 10:05:07;;;;;;;2.17;1.10;;;;;;;15.46;41.66;151537.73;1740519;80;21051;-62
2022/10/11 10:07:35;;;;;;;2.52;0.88;;;;;;;15.46;41.67;151539.06;1731314;80;21256;-62
2022/10/11 10:10:38;;;;;;;2.92;1.45;;;;;;;15.46;42.55;151539.06;1742480;80;21058;-70
2022/10/11 10:13:27;;;;;;;4.53;1.90;;;;;;;15.46;43.53;151539.06;1743524;80;21043;-64
2022/10/11 10:15:57;;;;;;;5.53;1.98;;;;;;;15.47;44.55;151541.66;1734549;80;21074;-64
2022/10/11 10:18:35;;;;;;;2.95;1.98;;;;;;;15.50;46.40;151548.19;1734931;80;21547;-62
2022/10/11 10:21:02;;;;;;;4.95;2.22;;;;;;;15.50;47.73;151546.86;1729262;80;22012;-69
2022/10/11 10:23:35;;;;;;;4.90;2.15;;;;;;;15.42;49.34;151528.66;1742690;80;21543;-69
2022/10/11 10:26:16;;;;;;;4.03;2.00;;;;;;;15.31;49.41;151499.97;1729166;80;20967;-64
2022/10/11 10:29:05;;;;;;;2.62;1.67;;;;;;;15.29;49.52;151494.78;1736982;80;21241;-64
2022/10/11 10:31:54;;;;;;;4.80;1.60;;;;;;;15.33;48.89;151505.19;1731640;80;21144;-64
2022/10/11 10:34:27;;;;;;;6.92;2.08;;;;;;;15.34;48.02;151507.78;1748771;80;21544;-64
2022/10/11 10:37:01;;;;;;;;;;;;;;;15.35;47.48;151509.11;1691567;83;20992;-69
2022/10/11 10:39:45;;;;;;;5.72;1.87;;;;;;;15.33;48.09;151506.50;1736440;80;20163;-69
2022/10/11 10:42:18;;;;;;;5.07;2.30;;;;;;;15.32;50.05;151502.58;1742301;80;21086;-69
2022/10/11 10:44:55;;;;;;;3.40;2.30;;;;;;;15.28;51.13;151492.17;1746563;80;22201;-63
2022/10/11 10:48:05;;;;;;;3.95;2.30;;;;;;;15.22;51.84;151477.84;1747380;80;21408;-69
2022/10/11 10:50:54;;;;;;;6.08;2.67;;;;;;;15.22;52.18;151476.56;1754095;80;21079;-64
2022/10/11 10:53:38;;;;;;;5.58;2.37;;;;;;;15.25;52.21;151484.37;1743501;80;21545;-64
2022/10/11 10:56:22;;;;;;;5.50;2.40;;;;;;;15.23;53.29;151479.16;1746428;80;21527;-71
2022/10/11 10:59:30;;;;;;;5.70;2.35;;;;;;;15.20;53.41;151471.36;1736451;80;21112;-64
2022/10/11 11:02:17;;;;;;;5.22;2.12;;;;;;;15.14;53.34;151458.34;1725322;80;21158;-69
2022/10/11 11:04:55;;;;;;;6.78;2.33;;;;;;;15.07;53.38;151438.81;1670929;83;21519;-62
2022/10/11 11:07:33;;;;;;;4.35;2.25;;;;;;;14.99;53.39;151419.28;1680771;83;21058;-62
2022/10/11 11:10:21;;;;;;;6.72;2.40;;;;;;;14.92;53.57;151401.03;1696121;83;21087;-70
2022/10/11 11:12:57;;;;;;;4.47;2.17;;;;;;;14.86;53.32;151388.03;1683996;83;20988;-75
2022/10/11 11:15:44;;;;;;;4.80;2.08;;;;;;;14.82;53.23;151377.62;1733562;80;21831;-74
2022/10/11 11:18:28;;;;;;;7.87;2.02;;;;;;;14.80;53.09;151372.41;1740829;80;21086;-71
2022/10/11 11:21:21;;;;;;;6.97;2.15;;;;;;;14.75;53.14;151359.41;1730456;80;21482;-71
2022/10/11 11:24:08;;;;;;;3.92;1.98;;;;;;;14.72;53.17;151351.61;1689898;80;21059;-71
2022/10/11 11:27:10;;;;;;;11.68;2.72;;;;;;;14.68;53.55;151342.44;1685464;83;21092;-71
2022/10/11 11:29:56;;;;;;;4.33;1.98;;;;;;;14.65;53.73;151333.31;1733926;80;22158;-65
2022/10/11 11:32:34;;;;;;;6.05;1.85;;;;;;;14.60;53.92;151321.63;1723317;80;21012;-64
2022/10/11 11:35:12;;;;;;;7.42;1.92;;;;;;;14.60;54.30;151322.91;1691902;82;21115;-71
2022/10/11 11:37:40;;;;;;;3.90;2.00;;;;;;;14.61;54.37;151325.50;1668868;83;21036;-71
2022/10/11 11:40:18;;;;;;;3.55;1.95;;;;;;;14.59;54.32;151320.31;1685014;83;21593;-64
2022/10/11 11:42:52;;;;;;;11.18;2.33;;;;;;;14.58;54.67;151317.70;1696449;83;22320;-71
2022/10/11 11:45:29;;;;;;;5.67;1.90;;;;;;;14.59;55.00;151320.31;1683240;83;21431;-71
2022/10/11 11:48:03;;;;;;;4.72;2.37;;;;;;;14.61;55.28;151324.23;1707880;80;21091;-70
2022/10/11 11:50:38;;;;;;;4.22;1.95;;;;;;;14.60;54.99;151322.91;1730041;80;21544;-70
2022/10/11 11:53:21;;;;;;;8.15;2.20;;;;;;;14.58;54.92;151317.70;1752274;80;20974;-70
2022/10/11 11:56:09;;;;;;;5.22;2.20;;;;;;;14.57;55.20;151315.09;1738187;80;21192;-70
2022/10/11 11:58:58;;;;;;;8.40;2.02;;;;;;;14.55;55.59;151309.91;1603768;82;21555;-69